sensor_id;sensor_type;location;lat;lon;timestamp;temperature;humidity
30148;DHT22;16960;49.404;8.248;2023-12-22T00:00:47;19.30;40.40
30148;DHT22;16960;49.404;8.248;2023-12-22T00:03:14;19.30;40.50
30148;DHT22;16960;49.404;8.248;2023-12-22T00:05:43;19.30;40.50
30148;DHT22;16960;49.404;8.248;2023-12-22T00:08:09;19.30;40.60
30148;DHT22;16960;49.404;8.248;2023-12-22T00:10:36;19.30;40.60
30148;DHT22;16960;49.404;8.248;2023-12-22T00:13:03;19.30;40.60
30148;DHT22;16960;49.404;8.248;2023-12-22T00:15:30;19.30;40.60
30148;DHT22;16960;49.404;8.248;2023-12-22T00:17:56;19.30;40.70
30148;DHT22;16960;49.404;8.248;2023-12-22T00:20:23;19.30;40.70
30148;DHT22;16960;49.404;8.248;2023-12-22T00:22:52;19.30;40.80
30148;DHT22;16960;49.404;8.248;2023-12-22T00:25:19;19.20;40.60
30148;DHT22;16960;49.404;8.248;2023-12-22T00:27:45;19.30;40.70
30148;DHT22;16960;49.404;8.248;2023-12-22T00:30:13;19.30;40.80
30148;DHT22;16960;49.404;8.248;2023-12-22T00:32:40;19.30;40.90
30148;DHT22;16960;49.404;8.248;2023-12-22T00:35:07;19.30;40.80
30148;DHT22;16960;49.404;8.248;2023-12-22T00:37:34;19.30;40.90
30148;DHT22;16960;49.404;8.248;2023-12-22T00:40:02;19.30;41.60
30148;DHT22;16960;49.404;8.248;2023-12-22T00:42:32;19.30;40.90
30148;DHT22;16960;49.404;8.248;2023-12-22T00:44:59;19.30;40.90
30148;DHT22;16960;49.404;8.248;2023-12-22T00:47:26;19.30;40.90
30148;DHT22;16960;49.404;8.248;2023-12-22T00:49:53;19.30;41.00
30148;DHT22;16960;49.404;8.248;2023-12-22T00:52:20;19.30;41.00
30148;DHT22;16960;49.404;8.248;2023-12-22T00:54:47;19.30;41.00
30148;DHT22;16960;49.404;8.248;2023-12-22T00:57:15;19.30;41.00
30148;DHT22;16960;49.404;8.248;2023-12-22T00:59:43;19.30;40.80
30148;DHT22;16960;49.404;8.248;2023-12-22T01:02:13;19.30;40.80
30148;DHT22;16960;49.404;8.248;2023-12-22T01:04:40;19.30;40.80
30148;DHT22;16960;49.404;8.248;2023-12-22T01:07:07;19.30;40.90
30148;DHT22;16960;49.404;8.248;2023-12-22T01:09:34;19.30;40.80
30148;DHT22;16960;49.404;8.248;2023-12-22T01:12:02;19.20;40.70
30148;DHT22;16960;49.404;8.248;2023-12-22T01:14:30;19.30;40.90
30148;DHT22;16960;49.404;8.248;2023-12-22T01:16:57;19.20;40.70
30148;DHT22;16960;49.404;8.248;2023-12-22T01:19:26;19.20;40.70
30148;DHT22;16960;49.404;8.248;2023-12-22T01:21:53;19.20;40.60
30148;DHT22;16960;49.404;8.248;2023-12-22T01:24:20;19.20;40.70
30148;DHT22;16960;49.404;8.248;2023-12-22T01:26:46;19.20;40.60
30148;DHT22;16960;49.404;8.248;2023-12-22T01:29:13;19.20;40.60
30148;DHT22;16960;49.404;8.248;2023-12-22T01:31:42;19.20;40.60
30148;DHT22;16960;49.404;8.248;2023-12-22T01:34:09;19.20;40.60
30148;DHT22;16960;49.404;8.248;2023-12-22T01:36:35;19.20;40.60
30148;DHT22;16960;49.404;8.248;2023-12-22T01:39:02;19.20;40.60
30148;DHT22;16960;49.404;8.248;2023-12-22T01:41:30;19.20;40.70
30148;DHT22;16960;49.404;8.248;2023-12-22T01:43:57;19.20;40.60
30148;DHT22;16960;49.404;8.248;2023-12-22T01:46:23;19.20;40.70
30148;DHT22;16960;49.404;8.248;2023-12-22T01:48:52;19.20;40.60
30148;DHT22;16960;49.404;8.248;2023-12-22T01:51:19;19.20;40.50
30148;DHT22;16960;49.404;8.248;2023-12-22T01:53:46;19.10;40.40
30148;DHT22;16960;49.404;8.248;2023-12-22T01:56:14;19.20;40.40
30148;DHT22;16960;49.404;8.248;2023-12-22T01:58:41;19.20;40.50
30148;DHT22;16960;49.404;8.248;2023-12-22T02:01:08;19.10;40.50
30148;DHT22;16960;49.404;8.248;2023-12-22T02:03:35;19.10;40.30
30148;DHT22;16960;49.404;8.248;2023-12-22T02:06:05;19.10;40.30
30148;DHT22;16960;49.404;8.248;2023-12-22T02:08:32;19.10;40.20
30148;DHT22;16960;49.404;8.248;2023-12-22T02:10:59;19.10;40.20
30148;DHT22;16960;49.404;8.248;2023-12-22T02:13:26;19.10;40.20
30148;DHT22;16960;49.404;8.248;2023-12-22T02:16:01;19.10;40.20
30148;DHT22;16960;49.404;8.248;2023-12-22T02:18:34;19.10;40.30
30148;DHT22;16960;49.404;8.248;2023-12-22T02:21:01;19.00;40.20
30148;DHT22;16960;49.404;8.248;2023-12-22T02:23:30;19.00;40.20
30148;DHT22;16960;49.404;8.248;2023-12-22T02:26:06;19.00;40.10
30148;DHT22;16960;49.404;8.248;2023-12-22T02:28:35;19.00;40.80
30148;DHT22;16960;49.404;8.248;2023-12-22T02:31:12;19.00;40.10
30148;DHT22;16960;49.404;8.248;2023-12-22T02:33:41;19.00;40.10
30148;DHT22;16960;49.404;8.248;2023-12-22T02:36:09;19.00;40.10
30148;DHT22;16960;49.404;8.248;2023-12-22T02:38:39;19.00;40.10
30148;DHT22;16960;49.404;8.248;2023-12-22T02:41:07;19.00;40.20
30148;DHT22;16960;49.404;8.248;2023-12-22T02:43:34;19.00;40.20
30148;DHT22;16960;49.404;8.248;2023-12-22T02:46:01;19.00;40.20
30148;DHT22;16960;49.404;8.248;2023-12-22T02:48:28;19.00;40.20
30148;DHT22;16960;49.404;8.248;2023-12-22T02:50:55;19.00;40.30
30148;DHT22;16960;49.404;8.248;2023-12-22T02:53:22;19.00;40.30
30148;DHT22;16960;49.404;8.248;2023-12-22T02:55:50;19.00;40.30
30148;DHT22;16960;49.404;8.248;2023-12-22T02:58:17;19.00;40.30
30148;DHT22;16960;49.404;8.248;2023-12-22T03:00:44;18.90;40.30
30148;DHT22;16960;49.404;8.248;2023-12-22T03:03:11;18.90;40.30
30148;DHT22;16960;49.404;8.248;2023-12-22T03:05:39;18.90;40.30
30148;DHT22;16960;49.404;8.248;2023-12-22T03:08:06;19.00;40.30
30148;DHT22;16960;49.404;8.248;2023-12-22T03:10:33;18.90;40.30
30148;DHT22;16960;49.404;8.248;2023-12-22T03:13:01;18.90;40.40
30148;DHT22;16960;49.404;8.248;2023-12-22T03:15:28;18.90;40.40
30148;DHT22;16960;49.404;8.248;2023-12-22T03:17:55;18.90;40.40
30148;DHT22;16960;49.404;8.248;2023-12-22T03:20:21;18.90;40.40
30148;DHT22;16960;49.404;8.248;2023-12-22T03:22:48;18.90;40.40
30148;DHT22;16960;49.404;8.248;2023-12-22T03:25:15;18.90;40.40
30148;DHT22;16960;49.404;8.248;2023-12-22T03:27:42;18.90;40.40
30148;DHT22;16960;49.404;8.248;2023-12-22T03:30:11;18.90;40.40
30148;DHT22;16960;49.404;8.248;2023-12-22T03:32:38;18.90;40.40
30148;DHT22;16960;49.404;8.248;2023-12-22T03:35:06;18.90;40.40
30148;DHT22;16960;49.404;8.248;2023-12-22T03:37:33;18.90;40.30
30148;DHT22;16960;49.404;8.248;2023-12-22T03:40:00;18.90;40.30
30148;DHT22;16960;49.404;8.248;2023-12-22T03:42:27;18.90;40.30
30148;DHT22;16960;49.404;8.248;2023-12-22T03:44:54;18.90;40.30
30148;DHT22;16960;49.404;8.248;2023-12-22T03:47:22;18.90;40.20
30148;DHT22;16960;49.404;8.248;2023-12-22T03:49:49;18.90;40.20
30148;DHT22;16960;49.404;8.248;2023-12-22T03:52:16;18.80;40.10
30148;DHT22;16960;49.404;8.248;2023-12-22T03:54:43;18.80;39.90
30148;DHT22;16960;49.404;8.248;2023-12-22T03:57:10;18.80;40.00
30148;DHT22;16960;49.404;8.248;2023-12-22T03:59:37;18.80;40.00
30148;DHT22;16960;49.404;8.248;2023-12-22T04:02:04;18.80;39.90
30148;DHT22;16960;49.404;8.248;2023-12-22T04:04:32;18.80;39.90
30148;DHT22;16960;49.404;8.248;2023-12-22T04:06:59;18.80;39.90
30148;DHT22;16960;49.404;8.248;2023-12-22T04:09:26;18.70;39.90
30148;DHT22;16960;49.404;8.248;2023-12-22T04:11:53;18.70;39.90
30148;DHT22;16960;49.404;8.248;2023-12-22T04:14:20;18.70;39.90
30148;DHT22;16960;49.404;8.248;2023-12-22T04:16:46;18.70;39.90
30148;DHT22;16960;49.404;8.248;2023-12-22T04:19:13;18.70;39.90
30148;DHT22;16960;49.404;8.248;2023-12-22T04:21:42;18.70;39.80
30148;DHT22;16960;49.404;8.248;2023-12-22T04:24:08;18.70;39.80
30148;DHT22;16960;49.404;8.248;2023-12-22T04:26:36;18.60;39.70
30148;DHT22;16960;49.404;8.248;2023-12-22T04:29:03;18.60;39.60
30148;DHT22;16960;49.404;8.248;2023-12-22T04:31:29;18.60;39.70
30148;DHT22;16960;49.404;8.248;2023-12-22T04:33:56;18.60;39.80
30148;DHT22;16960;49.404;8.248;2023-12-22T04:36:23;18.60;39.80
30148;DHT22;16960;49.404;8.248;2023-12-22T04:38:51;18.60;39.80
30148;DHT22;16960;49.404;8.248;2023-12-22T04:41:18;18.60;39.80
30148;DHT22;16960;49.404;8.248;2023-12-22T04:43:45;18.50;39.80
30148;DHT22;16960;49.404;8.248;2023-12-22T04:46:12;18.50;40.60
30148;DHT22;16960;49.404;8.248;2023-12-22T04:48:39;18.50;40.60
30148;DHT22;16960;49.404;8.248;2023-12-22T04:51:06;18.50;39.90
30148;DHT22;16960;49.404;8.248;2023-12-22T04:53:33;18.50;39.90
30148;DHT22;16960;49.404;8.248;2023-12-22T04:56:01;18.50;40.00
30148;DHT22;16960;49.404;8.248;2023-12-22T04:58:28;18.50;40.00
30148;DHT22;16960;49.404;8.248;2023-12-22T05:00:55;18.50;40.00
30148;DHT22;16960;49.404;8.248;2023-12-22T05:03:22;18.50;40.00
30148;DHT22;16960;49.404;8.248;2023-12-22T05:05:49;18.50;40.00
30148;DHT22;16960;49.404;8.248;2023-12-22T05:08:16;18.50;40.00
30148;DHT22;16960;49.404;8.248;2023-12-22T05:10:43;18.50;40.10
30148;DHT22;16960;49.404;8.248;2023-12-22T05:13:11;18.50;40.10
30148;DHT22;16960;49.404;8.248;2023-12-22T05:15:38;18.50;40.20
30148;DHT22;16960;49.404;8.248;2023-12-22T05:18:05;18.50;40.20
30148;DHT22;16960;49.404;8.248;2023-12-22T05:20:32;18.50;40.30
30148;DHT22;16960;49.404;8.248;2023-12-22T05:22:59;18.50;40.30
30148;DHT22;16960;49.404;8.248;2023-12-22T05:25:26;18.50;40.30
30148;DHT22;16960;49.404;8.248;2023-12-22T05:27:53;18.50;40.30
30148;DHT22;16960;49.404;8.248;2023-12-22T05:30:21;18.60;40.30
30148;DHT22;16960;49.404;8.248;2023-12-22T05:32:52;18.60;40.30
30148;DHT22;16960;49.404;8.248;2023-12-22T05:35:20;18.60;40.30
30148;DHT22;16960;49.404;8.248;2023-12-22T05:37:53;18.60;40.30
30148;DHT22;16960;49.404;8.248;2023-12-22T05:40:20;18.70;40.40
30148;DHT22;16960;49.404;8.248;2023-12-22T05:42:47;18.70;40.30
30148;DHT22;16960;49.404;8.248;2023-12-22T05:45:14;18.70;40.40
30148;DHT22;16960;49.404;8.248;2023-12-22T05:47:43;18.70;40.40
30148;DHT22;16960;49.404;8.248;2023-12-22T05:50:10;18.70;40.40
30148;DHT22;16960;49.404;8.248;2023-12-22T05:52:37;18.80;40.40
30148;DHT22;16960;49.404;8.248;2023-12-22T05:55:05;18.80;40.40
30148;DHT22;16960;49.404;8.248;2023-12-22T05:57:34;18.80;40.40
30148;DHT22;16960;49.404;8.248;2023-12-22T06:00:00;18.80;40.40
30148;DHT22;16960;49.404;8.248;2023-12-22T06:02:30;18.90;40.60
30148;DHT22;16960;49.404;8.248;2023-12-22T06:04:58;18.90;40.60
30148;DHT22;16960;49.404;8.248;2023-12-22T06:07:25;18.90;40.60
30148;DHT22;16960;49.404;8.248;2023-12-22T06:09:51;18.90;40.60
30148;DHT22;16960;49.404;8.248;2023-12-22T06:12:18;18.90;40.50
30148;DHT22;16960;49.404;8.248;2023-12-22T06:14:45;18.90;40.50
30148;DHT22;16960;49.404;8.248;2023-12-22T06:17:13;19.00;40.40
30148;DHT22;16960;49.404;8.248;2023-12-22T06:19:40;19.00;40.50
30148;DHT22;16960;49.404;8.248;2023-12-22T06:22:08;19.00;40.40
30148;DHT22;16960;49.404;8.248;2023-12-22T06:24:35;19.10;40.40
30148;DHT22;16960;49.404;8.248;2023-12-22T06:27:02;19.10;40.40
30148;DHT22;16960;49.404;8.248;2023-12-22T06:29:29;19.10;40.30
30148;DHT22;16960;49.404;8.248;2023-12-22T06:31:57;19.10;40.20
30148;DHT22;16960;49.404;8.248;2023-12-22T06:34:24;19.10;40.30
30148;DHT22;16960;49.404;8.248;2023-12-22T06:36:51;19.10;40.10
30148;DHT22;16960;49.404;8.248;2023-12-22T06:39:19;19.20;40.10
30148;DHT22;16960;49.404;8.248;2023-12-22T06:41:46;19.10;40.30
30148;DHT22;16960;49.404;8.248;2023-12-22T06:44:13;19.20;40.20
30148;DHT22;16960;49.404;8.248;2023-12-22T06:46:40;19.20;40.20
30148;DHT22;16960;49.404;8.248;2023-12-22T06:49:07;19.20;40.10
30148;DHT22;16960;49.404;8.248;2023-12-22T06:51:34;19.20;40.10
30148;DHT22;16960;49.404;8.248;2023-12-22T06:54:01;19.20;40.00
30148;DHT22;16960;49.404;8.248;2023-12-22T06:56:33;19.20;40.00
30148;DHT22;16960;49.404;8.248;2023-12-22T06:59:00;19.20;40.00
30148;DHT22;16960;49.404;8.248;2023-12-22T07:01:29;19.20;39.80
30148;DHT22;16960;49.404;8.248;2023-12-22T07:03:57;19.30;39.90
30148;DHT22;16960;49.404;8.248;2023-12-22T07:06:25;19.30;39.90
30148;DHT22;16960;49.404;8.248;2023-12-22T07:08:57;19.30;39.90
30148;DHT22;16960;49.404;8.248;2023-12-22T07:11:48;19.30;39.90
30148;DHT22;16960;49.404;8.248;2023-12-22T07:14:15;19.30;39.80
30148;DHT22;16960;49.404;8.248;2023-12-22T07:16:42;19.30;39.70
30148;DHT22;16960;49.404;8.248;2023-12-22T07:19:09;19.30;39.80
30148;DHT22;16960;49.404;8.248;2023-12-22T07:21:38;19.30;39.70
30148;DHT22;16960;49.404;8.248;2023-12-22T07:24:06;19.30;39.70
30148;DHT22;16960;49.404;8.248;2023-12-22T07:26:33;19.30;39.70
30148;DHT22;16960;49.404;8.248;2023-12-22T07:29:01;19.30;39.70
30148;DHT22;16960;49.404;8.248;2023-12-22T07:31:28;19.30;40.40
30148;DHT22;16960;49.404;8.248;2023-12-22T07:33:55;19.30;39.70
30148;DHT22;16960;49.404;8.248;2023-12-22T07:36:21;19.30;39.60
30148;DHT22;16960;49.404;8.248;2023-12-22T07:38:47;19.40;39.70
30148;DHT22;16960;49.404;8.248;2023-12-22T07:41:14;19.30;39.80
30148;DHT22;16960;49.404;8.248;2023-12-22T07:43:41;19.40;39.80
30148;DHT22;16960;49.404;8.248;2023-12-22T07:46:16;19.40;39.70
30148;DHT22;16960;49.404;8.248;2023-12-22T07:48:43;19.40;39.80
30148;DHT22;16960;49.404;8.248;2023-12-22T07:51:10;19.40;39.80
30148;DHT22;16960;49.404;8.248;2023-12-22T07:53:37;19.40;39.70
30148;DHT22;16960;49.404;8.248;2023-12-22T07:56:05;19.40;39.70
30148;DHT22;16960;49.404;8.248;2023-12-22T07:58:32;19.40;39.80
30148;DHT22;16960;49.404;8.248;2023-12-22T08:00:59;19.40;39.80
30148;DHT22;16960;49.404;8.248;2023-12-22T08:03:27;19.40;39.80
30148;DHT22;16960;49.404;8.248;2023-12-22T08:05:54;19.40;39.80
30148;DHT22;16960;49.404;8.248;2023-12-22T08:08:21;19.40;39.80
30148;DHT22;16960;49.404;8.248;2023-12-22T08:10:48;19.40;39.80
30148;DHT22;16960;49.404;8.248;2023-12-22T08:13:15;19.40;39.80
30148;DHT22;16960;49.404;8.248;2023-12-22T08:15:43;19.40;39.80
30148;DHT22;16960;49.404;8.248;2023-12-22T08:18:10;19.50;39.80
30148;DHT22;16960;49.404;8.248;2023-12-22T08:20:39;19.50;39.80
30148;DHT22;16960;49.404;8.248;2023-12-22T08:23:06;19.50;39.70
30148;DHT22;16960;49.404;8.248;2023-12-22T08:25:33;19.50;39.70
30148;DHT22;16960;49.404;8.248;2023-12-22T08:28:00;19.50;39.70
30148;DHT22;16960;49.404;8.248;2023-12-22T08:30:27;19.50;39.70
30148;DHT22;16960;49.404;8.248;2023-12-22T08:32:54;19.50;39.70
30148;DHT22;16960;49.404;8.248;2023-12-22T08:35:21;19.50;39.60
30148;DHT22;16960;49.404;8.248;2023-12-22T08:37:49;19.50;39.60
30148;DHT22;16960;49.404;8.248;2023-12-22T08:40:16;19.50;39.60
30148;DHT22;16960;49.404;8.248;2023-12-22T08:42:43;19.50;39.60
30148;DHT22;16960;49.404;8.248;2023-12-22T08:45:10;19.60;39.50
30148;DHT22;16960;49.404;8.248;2023-12-22T08:47:36;19.60;39.50
30148;DHT22;16960;49.404;8.248;2023-12-22T08:50:04;19.60;39.50
30148;DHT22;16960;49.404;8.248;2023-12-22T08:52:33;19.60;39.50
30148;DHT22;16960;49.404;8.248;2023-12-22T08:55:02;19.60;39.50
30148;DHT22;16960;49.404;8.248;2023-12-22T08:57:29;19.60;39.50
30148;DHT22;16960;49.404;8.248;2023-12-22T08:59:57;19.60;39.60
30148;DHT22;16960;49.404;8.248;2023-12-22T09:02:24;19.60;39.60
30148;DHT22;16960;49.404;8.248;2023-12-22T09:04:52;19.60;39.50
30148;DHT22;16960;49.404;8.248;2023-12-22T09:07:18;19.60;39.40
30148;DHT22;16960;49.404;8.248;2023-12-22T09:09:48;19.60;39.40
30148;DHT22;16960;49.404;8.248;2023-12-22T09:12:16;19.60;39.30
30148;DHT22;16960;49.404;8.248;2023-12-22T09:14:43;19.70;39.40
30148;DHT22;16960;49.404;8.248;2023-12-22T09:17:10;19.70;39.40
30148;DHT22;16960;49.404;8.248;2023-12-22T09:19:37;19.70;39.40
30148;DHT22;16960;49.404;8.248;2023-12-22T09:22:04;19.70;39.40
30148;DHT22;16960;49.404;8.248;2023-12-22T09:24:48;19.70;39.40
30148;DHT22;16960;49.404;8.248;2023-12-22T09:27:16;19.70;39.40
30148;DHT22;16960;49.404;8.248;2023-12-22T09:29:43;19.70;39.40
30148;DHT22;16960;49.404;8.248;2023-12-22T09:32:10;19.70;39.40
30148;DHT22;16960;49.404;8.248;2023-12-22T09:34:37;19.70;39.50
30148;DHT22;16960;49.404;8.248;2023-12-22T09:37:05;19.70;39.60
30148;DHT22;16960;49.404;8.248;2023-12-22T09:39:32;19.70;39.60
30148;DHT22;16960;49.404;8.248;2023-12-22T09:41:59;19.80;39.60
30148;DHT22;16960;49.404;8.248;2023-12-22T09:44:32;19.80;39.50
30148;DHT22;16960;49.404;8.248;2023-12-22T09:46:59;19.80;39.40
30148;DHT22;16960;49.404;8.248;2023-12-22T09:49:28;19.90;39.40
30148;DHT22;16960;49.404;8.248;2023-12-22T09:51:57;19.90;39.30
30148;DHT22;16960;49.404;8.248;2023-12-22T09:54:24;20.00;39.20
30148;DHT22;16960;49.404;8.248;2023-12-22T09:56:52;20.10;39.20
30148;DHT22;16960;49.404;8.248;2023-12-22T09:59:21;20.10;39.20
30148;DHT22;16960;49.404;8.248;2023-12-22T10:01:55;20.20;39.20
30148;DHT22;16960;49.404;8.248;2023-12-22T10:04:24;20.30;39.10
30148;DHT22;16960;49.404;8.248;2023-12-22T10:06:51;20.30;39.00
30148;DHT22;16960;49.404;8.248;2023-12-22T10:09:20;20.30;38.90
30148;DHT22;16960;49.404;8.248;2023-12-22T10:11:49;20.30;38.90
30148;DHT22;16960;49.404;8.248;2023-12-22T10:14:19;20.30;38.70
30148;DHT22;16960;49.404;8.248;2023-12-22T10:16:48;20.40;38.70
30148;DHT22;16960;49.404;8.248;2023-12-22T10:19:17;20.40;38.70
30148;DHT22;16960;49.404;8.248;2023-12-22T10:21:44;20.40;38.70
30148;DHT22;16960;49.404;8.248;2023-12-22T10:27:14;20.40;38.70
30148;DHT22;16960;49.404;8.248;2023-12-22T10:29:42;20.50;38.70
30148;DHT22;16960;49.404;8.248;2023-12-22T10:32:09;20.50;38.60
30148;DHT22;16960;49.404;8.248;2023-12-22T10:34:37;20.50;38.60
30148;DHT22;16960;49.404;8.248;2023-12-22T10:37:04;20.50;38.60
30148;DHT22;16960;49.404;8.248;2023-12-22T10:39:31;20.60;38.50
30148;DHT22;16960;49.404;8.248;2023-12-22T10:41:59;20.50;38.40
30148;DHT22;16960;49.404;8.248;2023-12-22T10:44:26;20.50;38.40
30148;DHT22;16960;49.404;8.248;2023-12-22T10:46:54;20.60;38.30
30148;DHT22;16960;49.404;8.248;2023-12-22T10:49:21;20.60;38.30
30148;DHT22;16960;49.404;8.248;2023-12-22T10:51:50;20.60;38.30
30148;DHT22;16960;49.404;8.248;2023-12-22T10:54:17;20.60;38.30
30148;DHT22;16960;49.404;8.248;2023-12-22T10:56:45;20.60;38.30
30148;DHT22;16960;49.404;8.248;2023-12-22T10:59:12;20.60;38.30
30148;DHT22;16960;49.404;8.248;2023-12-22T11:01:39;20.60;38.30
30148;DHT22;16960;49.404;8.248;2023-12-22T11:04:07;20.70;38.40
30148;DHT22;16960;49.404;8.248;2023-12-22T11:06:36;20.80;38.20
30148;DHT22;16960;49.404;8.248;2023-12-22T11:09:07;20.80;38.20
30148;DHT22;16960;49.404;8.248;2023-12-22T11:11:35;20.80;38.20
30148;DHT22;16960;49.404;8.248;2023-12-22T11:14:03;20.70;38.20
30148;DHT22;16960;49.404;8.248;2023-12-22T11:16:30;20.80;38.20
30148;DHT22;16960;49.404;8.248;2023-12-22T11:19:00;20.70;38.20
30148;DHT22;16960;49.404;8.248;2023-12-22T11:21:27;20.70;38.20
30148;DHT22;16960;49.404;8.248;2023-12-22T11:23:56;20.80;38.20
30148;DHT22;16960;49.404;8.248;2023-12-22T11:26:25;20.80;38.20
30148;DHT22;16960;49.404;8.248;2023-12-22T11:28:53;20.80;38.20
30148;DHT22;16960;49.404;8.248;2023-12-22T11:31:19;20.80;38.20
30148;DHT22;16960;49.404;8.248;2023-12-22T11:33:48;20.80;38.30
30148;DHT22;16960;49.404;8.248;2023-12-22T11:36:16;20.70;38.20
30148;DHT22;16960;49.404;8.248;2023-12-22T11:38:45;20.80;38.30
30148;DHT22;16960;49.404;8.248;2023-12-22T11:41:16;20.80;38.30
30148;DHT22;16960;49.404;8.248;2023-12-22T11:43:47;20.80;38.30
30148;DHT22;16960;49.404;8.248;2023-12-22T11:46:16;20.70;38.30
30148;DHT22;16960;49.404;8.248;2023-12-22T11:51:35;20.80;38.40
30148;DHT22;16960;49.404;8.248;2023-12-22T11:54:02;20.80;38.30
30148;DHT22;16960;49.404;8.248;2023-12-22T11:56:29;20.80;38.30
30148;DHT22;16960;49.404;8.248;2023-12-22T11:58:58;20.90;38.40
30148;DHT22;16960;49.404;8.248;2023-12-22T12:01:27;20.90;38.40
30148;DHT22;16960;49.404;8.248;2023-12-22T12:03:56;20.90;38.40
30148;DHT22;16960;49.404;8.248;2023-12-22T12:06:34;20.90;38.40
30148;DHT22;16960;49.404;8.248;2023-12-22T12:09:05;20.90;38.40
30148;DHT22;16960;49.404;8.248;2023-12-22T12:12:11;20.90;38.40
30148;DHT22;16960;49.404;8.248;2023-12-22T12:14:43;21.00;38.40
30148;DHT22;16960;49.404;8.248;2023-12-22T12:17:10;21.00;38.40
30148;DHT22;16960;49.404;8.248;2023-12-22T12:19:38;21.00;38.30
30148;DHT22;16960;49.404;8.248;2023-12-22T12:22:07;21.00;38.40
30148;DHT22;16960;49.404;8.248;2023-12-22T12:24:36;21.00;38.40
30148;DHT22;16960;49.404;8.248;2023-12-22T12:27:04;21.00;38.40
30148;DHT22;16960;49.404;8.248;2023-12-22T12:29:32;21.00;38.40
30148;DHT22;16960;49.404;8.248;2023-12-22T12:32:04;21.10;38.40
30148;DHT22;16960;49.404;8.248;2023-12-22T12:34:32;21.00;38.30
30148;DHT22;16960;49.404;8.248;2023-12-22T12:36:59;21.10;38.50
30148;DHT22;16960;49.404;8.248;2023-12-22T12:39:30;21.10;38.50
30148;DHT22;16960;49.404;8.248;2023-12-22T12:41:59;21.10;38.40
30148;DHT22;16960;49.404;8.248;2023-12-22T12:44:27;21.10;38.40
30148;DHT22;16960;49.404;8.248;2023-12-22T12:46:55;21.10;38.40
30148;DHT22;16960;49.404;8.248;2023-12-22T12:49:24;21.10;38.40
30148;DHT22;16960;49.404;8.248;2023-12-22T12:51:53;21.10;38.40
30148;DHT22;16960;49.404;8.248;2023-12-22T12:54:20;21.20;38.50
30148;DHT22;16960;49.404;8.248;2023-12-22T12:56:47;21.20;38.40
30148;DHT22;16960;49.404;8.248;2023-12-22T12:59:16;21.20;38.40
30148;DHT22;16960;49.404;8.248;2023-12-22T13:01:44;21.20;38.40
30148;DHT22;16960;49.404;8.248;2023-12-22T13:04:12;21.20;38.50
30148;DHT22;16960;49.404;8.248;2023-12-22T13:06:44;21.20;38.60
30148;DHT22;16960;49.404;8.248;2023-12-22T13:09:12;21.10;38.50
30148;DHT22;16960;49.404;8.248;2023-12-22T13:11:40;21.20;38.60
30148;DHT22;16960;49.404;8.248;2023-12-22T13:14:08;21.20;38.60
30148;DHT22;16960;49.404;8.248;2023-12-22T13:16:35;21.20;38.60
30148;DHT22;16960;49.404;8.248;2023-12-22T13:19:02;21.20;38.60
30148;DHT22;16960;49.404;8.248;2023-12-22T13:21:30;21.10;38.70
30148;DHT22;16960;49.404;8.248;2023-12-22T13:24:12;21.10;38.70
30148;DHT22;16960;49.404;8.248;2023-12-22T13:26:40;21.10;38.70
30148;DHT22;16960;49.404;8.248;2023-12-22T13:29:08;21.10;38.80
30148;DHT22;16960;49.404;8.248;2023-12-22T13:31:37;21.10;38.90
30148;DHT22;16960;49.404;8.248;2023-12-22T13:34:08;21.10;38.80
30148;DHT22;16960;49.404;8.248;2023-12-22T13:36:36;21.10;38.80
30148;DHT22;16960;49.404;8.248;2023-12-22T13:39:03;21.10;38.80
30148;DHT22;16960;49.404;8.248;2023-12-22T13:41:33;21.10;38.80
30148;DHT22;16960;49.404;8.248;2023-12-22T13:44:03;21.00;38.70
30148;DHT22;16960;49.404;8.248;2023-12-22T13:46:30;21.10;38.80
30148;DHT22;16960;49.404;8.248;2023-12-22T13:48:58;21.00;38.90
30148;DHT22;16960;49.404;8.248;2023-12-22T13:51:25;21.00;38.90
30148;DHT22;16960;49.404;8.248;2023-12-22T13:53:52;21.00;39.00
30148;DHT22;16960;49.404;8.248;2023-12-22T13:56:19;21.00;39.10
30148;DHT22;16960;49.404;8.248;2023-12-22T13:58:48;21.00;39.40
30148;DHT22;16960;49.404;8.248;2023-12-22T14:01:15;21.00;39.40
30148;DHT22;16960;49.404;8.248;2023-12-22T14:03:43;21.00;39.60
30148;DHT22;16960;49.404;8.248;2023-12-22T14:06:10;21.00;39.60
30148;DHT22;16960;49.404;8.248;2023-12-22T14:08:39;21.00;39.50
30148;DHT22;16960;49.404;8.248;2023-12-22T14:11:07;21.00;39.40
30148;DHT22;16960;49.404;8.248;2023-12-22T14:13:34;21.00;39.30
30148;DHT22;16960;49.404;8.248;2023-12-22T14:16:06;21.00;39.30
30148;DHT22;16960;49.404;8.248;2023-12-22T14:18:33;21.00;39.30
30148;DHT22;16960;49.404;8.248;2023-12-22T14:21:00;20.90;39.30
30148;DHT22;16960;49.404;8.248;2023-12-22T14:23:29;20.90;39.30
30148;DHT22;16960;49.404;8.248;2023-12-22T14:25:56;20.90;39.30
30148;DHT22;16960;49.404;8.248;2023-12-22T14:28:23;20.90;39.30
30148;DHT22;16960;49.404;8.248;2023-12-22T14:30:50;20.90;39.60
30148;DHT22;16960;49.404;8.248;2023-12-22T14:33:18;20.90;39.80
30148;DHT22;16960;49.404;8.248;2023-12-22T14:35:45;20.90;39.70
30148;DHT22;16960;49.404;8.248;2023-12-22T14:38:12;20.90;39.70
30148;DHT22;16960;49.404;8.248;2023-12-22T14:40:39;20.90;39.70
30148;DHT22;16960;49.404;8.248;2023-12-22T14:43:06;20.90;39.70
30148;DHT22;16960;49.404;8.248;2023-12-22T14:45:33;20.90;39.70
30148;DHT22;16960;49.404;8.248;2023-12-22T14:48:00;20.90;39.70
30148;DHT22;16960;49.404;8.248;2023-12-22T14:50:28;20.90;39.80
30148;DHT22;16960;49.404;8.248;2023-12-22T14:52:55;20.90;39.70
30148;DHT22;16960;49.404;8.248;2023-12-22T14:55:22;20.90;40.20
30148;DHT22;16960;49.404;8.248;2023-12-22T14:57:49;20.90;39.90
30148;DHT22;16960;49.404;8.248;2023-12-22T15:00:16;20.90;39.80
30148;DHT22;16960;49.404;8.248;2023-12-22T15:02:44;20.90;39.80
30148;DHT22;16960;49.404;8.248;2023-12-22T15:05:11;21.00;39.70
30148;DHT22;16960;49.404;8.248;2023-12-22T15:07:39;21.00;39.70
30148;DHT22;16960;49.404;8.248;2023-12-22T15:10:07;20.90;39.60
30148;DHT22;16960;49.404;8.248;2023-12-22T15:12:34;21.00;39.60
30148;DHT22;16960;49.404;8.248;2023-12-22T15:15:04;21.00;39.60
30148;DHT22;16960;49.404;8.248;2023-12-22T15:17:31;20.90;39.80
30148;DHT22;16960;49.404;8.248;2023-12-22T15:19:58;21.00;39.80
30148;DHT22;16960;49.404;8.248;2023-12-22T15:22:25;20.90;39.80
30148;DHT22;16960;49.404;8.248;2023-12-22T15:24:54;20.90;39.90
30148;DHT22;16960;49.404;8.248;2023-12-22T15:27:21;21.00;40.00
30148;DHT22;16960;49.404;8.248;2023-12-22T15:29:48;20.90;39.90
30148;DHT22;16960;49.404;8.248;2023-12-22T15:32:15;21.00;39.90
30148;DHT22;16960;49.404;8.248;2023-12-22T15:34:42;21.00;39.90
30148;DHT22;16960;49.404;8.248;2023-12-22T15:37:09;21.00;39.80
30148;DHT22;16960;49.404;8.248;2023-12-22T15:39:36;21.00;39.80